Terminal Aerodrome Forecast
Issued by NWS

Home | Current Version | Previous Version | Text Only | Print | Product List | Glossary On
Versions: 1 2 3 4 5 6 7 8 9 10 11 12 13 14 15 16 17
000
FTUS43 KLSX 281100
TAFUIN
TAF
KUIN 281136Z 2812/2912 16012KT P6SM SKC WS015/21040KT
     FM281500 18012G18KT P6SM SCT250
     FM282300 18010KT P6SM BKN250
     FM290900 18010KT P6SM BKN015=

USA.gov is the U.S. government's official web portal to all federal, state and local government web resources and services.